Jack Frost Mountain, Pennsylvania
Current Conditions -  °F | °C
As of 5:53 AM on Sunday 23 Nov 2014 (Local Time) from KMPO Reporting Station
Overcast Overcast  
Wind Chill: 36°   Ceiling: 7000
Heat Index: 39°   Visibility: 10mi
Dew Point: 19°   Wind: 5mph
Humidity: 45%   Direction: 290°WNW
Pressure: 30.11"   Gusts: NA
Location:  41.1°N, 75.63°W
Report Text: KMPO 231053Z AUTO 29004KT 10SM OVC070 04/M07 A3011 RMK AO2 SLP212 T00391072
Loading
Personal Weather Stations






























Interactive Weather Map New forecast layout! Learn more

10-Day Weather Forecast

Advertisements
Track Severe Weather on mobile